sensor_id;sensor_type;location;lat;lon;timestamp;P1;durP1;ratioP1;P2;durP2;ratioP2
20855;SDS011;63058;49.424;8.420;2022-10-17T00:02:01;2.03;;;1.50;;
20855;SDS011;63058;49.424;8.420;2022-10-17T00:04:27;1.90;;;1.70;;
20855;SDS011;63058;49.424;8.420;2022-10-17T00:06:53;2.10;;;1.85;;
20855;SDS011;63058;49.424;8.420;2022-10-17T00:09:18;1.90;;;1.70;;
20855;SDS011;63058;49.424;8.420;2022-10-17T00:11:44;3.45;;;1.65;;
20855;SDS011;63058;49.424;8.420;2022-10-17T00:14:09;2.42;;;1.88;;
20855;SDS011;63058;49.424;8.420;2022-10-17T00:16:35;2.67;;;1.65;;
20855;SDS011;63058;49.424;8.420;2022-10-17T00:19:02;2.00;;;1.60;;
20855;SDS011;63058;49.424;8.420;2022-10-17T00:21:29;5.78;;;2.30;;
20855;SDS011;63058;49.424;8.420;2022-10-17T00:23:55;5.10;;;1.75;;
20855;SDS011;63058;49.424;8.420;2022-10-17T00:26:21;3.88;;;1.88;;
20855;SDS011;63058;49.424;8.420;2022-10-17T00:28:49;2.45;;;1.90;;
20855;SDS011;63058;49.424;8.420;2022-10-17T00:31:16;2.45;;;1.88;;
20855;SDS011;63058;49.424;8.420;2022-10-17T00:33:44;6.15;;;1.88;;
20855;SDS011;63058;49.424;8.420;2022-10-17T00:36:11;2.47;;;1.63;;
20855;SDS011;63058;49.424;8.420;2022-10-17T00:38:45;2.83;;;1.70;;
20855;SDS011;63058;49.424;8.420;2022-10-17T00:41:13;2.80;;;1.63;;
20855;SDS011;63058;49.424;8.420;2022-10-17T00:44:56;1.88;;;1.50;;
20855;SDS011;63058;49.424;8.420;2022-10-17T00:46:50;1.60;;;1.45;;
20855;SDS011;63058;49.424;8.420;2022-10-17T00:49:16;4.05;;;1.40;;
20855;SDS011;63058;49.424;8.420;2022-10-17T00:51:44;1.70;;;1.52;;
20855;SDS011;63058;49.424;8.420;2022-10-17T00:54:14;1.52;;;1.42;;
20855;SDS011;63058;49.424;8.420;2022-10-17T00:56:41;3.33;;;1.77;;
20855;SDS011;63058;49.424;8.420;2022-10-17T00:59:08;1.65;;;1.42;;
20855;SDS011;63058;49.424;8.420;2022-10-17T01:01:36;5.35;;;1.40;;
20855;SDS011;63058;49.424;8.420;2022-10-17T01:04:02;2.15;;;1.80;;
20855;SDS011;63058;49.424;8.420;2022-10-17T01:06:28;2.67;;;1.23;;
20855;SDS011;63058;49.424;8.420;2022-10-17T01:08:54;2.92;;;1.90;;
20855;SDS011;63058;49.424;8.420;2022-10-17T01:14:25;2.35;;;1.65;;
20855;SDS011;63058;49.424;8.420;2022-10-17T01:16:58;1.58;;;1.33;;
20855;SDS011;63058;49.424;8.420;2022-10-17T01:23:23;3.20;;;1.40;;
20855;SDS011;63058;49.424;8.420;2022-10-17T01:28:14;3.95;;;1.42;;
20855;SDS011;63058;49.424;8.420;2022-10-17T01:33:35;4.32;;;1.60;;
20855;SDS011;63058;49.424;8.420;2022-10-17T01:39:02;2.35;;;1.40;;
20855;SDS011;63058;49.424;8.420;2022-10-17T01:41:44;2.40;;;1.40;;
20855;SDS011;63058;49.424;8.420;2022-10-17T01:44:25;4.32;;;1.60;;
20855;SDS011;63058;49.424;8.420;2022-10-17T01:47:29;2.50;;;1.42;;
20855;SDS011;63058;49.424;8.420;2022-10-17T01:50:05;2.70;;;1.30;;
20855;SDS011;63058;49.424;8.420;2022-10-17T01:52:43;1.73;;;1.60;;
20855;SDS011;63058;49.424;8.420;2022-10-17T01:55:13;6.75;;;1.30;;
20855;SDS011;63058;49.424;8.420;2022-10-17T01:57:48;1.40;;;1.30;;
20855;SDS011;63058;49.424;8.420;2022-10-17T02:00:17;3.60;;;1.40;;
20855;SDS011;63058;49.424;8.420;2022-10-17T02:02:47;2.17;;;1.40;;
20855;SDS011;63058;49.424;8.420;2022-10-17T02:05:16;1.95;;;1.42;;
20855;SDS011;63058;49.424;8.420;2022-10-17T02:07:44;2.10;;;1.33;;
20855;SDS011;63058;49.424;8.420;2022-10-17T02:10:11;1.42;;;1.27;;
20855;SDS011;63058;49.424;8.420;2022-10-17T02:12:50;2.38;;;1.60;;
20855;SDS011;63058;49.424;8.420;2022-10-17T02:15:31;1.95;;;1.45;;
20855;SDS011;63058;49.424;8.420;2022-10-17T02:18:25;5.53;;;1.50;;
20855;SDS011;63058;49.424;8.420;2022-10-17T02:21:26;1.70;;;1.40;;
20855;SDS011;63058;49.424;8.420;2022-10-17T02:24:17;5.35;;;1.60;;
20855;SDS011;63058;49.424;8.420;2022-10-17T02:26:56;1.80;;;1.50;;
20855;SDS011;63058;49.424;8.420;2022-10-17T02:29:35;1.70;;;1.27;;
20855;SDS011;63058;49.424;8.420;2022-10-17T02:32:16;2.55;;;1.42;;
20855;SDS011;63058;49.424;8.420;2022-10-17T02:34:53;2.13;;;1.40;;
20855;SDS011;63058;49.424;8.420;2022-10-17T02:37:22;2.78;;;1.65;;
20855;SDS011;63058;49.424;8.420;2022-10-17T02:39:51;1.85;;;1.45;;
20855;SDS011;63058;49.424;8.420;2022-10-17T02:42:19;1.88;;;1.55;;
20855;SDS011;63058;49.424;8.420;2022-10-17T02:44:47;1.95;;;1.40;;
20855;SDS011;63058;49.424;8.420;2022-10-17T02:50:00;1.42;;;1.23;;
20855;SDS011;63058;49.424;8.420;2022-10-17T02:55:23;1.80;;;1.63;;
20855;SDS011;63058;49.424;8.420;2022-10-17T02:58:03;1.98;;;1.42;;
20855;SDS011;63058;49.424;8.420;2022-10-17T03:00:34;2.97;;;1.52;;
20855;SDS011;63058;49.424;8.420;2022-10-17T03:03:17;1.73;;;1.40;;
20855;SDS011;63058;49.424;8.420;2022-10-17T03:05:50;5.32;;;1.40;;
20855;SDS011;63058;49.424;8.420;2022-10-17T03:08:18;1.80;;;1.50;;
20855;SDS011;63058;49.424;8.420;2022-10-17T03:10:44;1.75;;;1.50;;
20855;SDS011;63058;49.424;8.420;2022-10-17T03:13:10;1.40;;;1.30;;
20855;SDS011;63058;49.424;8.420;2022-10-17T03:15:36;2.92;;;1.52;;
20855;SDS011;63058;49.424;8.420;2022-10-17T03:18:01;1.88;;;1.25;;
20855;SDS011;63058;49.424;8.420;2022-10-17T03:20:27;1.90;;;1.50;;
20855;SDS011;63058;49.424;8.420;2022-10-17T03:22:53;1.77;;;1.42;;
20855;SDS011;63058;49.424;8.420;2022-10-17T03:25:18;1.98;;;1.50;;
20855;SDS011;63058;49.424;8.420;2022-10-17T03:27:44;1.65;;;1.48;;
20855;SDS011;63058;49.424;8.420;2022-10-17T03:30:09;1.50;;;1.35;;
20855;SDS011;63058;49.424;8.420;2022-10-17T03:32:35;6.47;;;1.42;;
20855;SDS011;63058;49.424;8.420;2022-10-17T03:35:01;1.73;;;1.33;;
20855;SDS011;63058;49.424;8.420;2022-10-17T03:37:27;1.92;;;1.50;;
20855;SDS011;63058;49.424;8.420;2022-10-17T03:39:52;3.63;;;1.60;;
20855;SDS011;63058;49.424;8.420;2022-10-17T03:42:18;4.03;;;1.40;;
20855;SDS011;63058;49.424;8.420;2022-10-17T03:44:43;6.78;;;1.60;;
20855;SDS011;63058;49.424;8.420;2022-10-17T03:47:09;3.20;;;1.60;;
20855;SDS011;63058;49.424;8.420;2022-10-17T03:49:35;2.40;;;1.40;;
20855;SDS011;63058;49.424;8.420;2022-10-17T03:52:00;1.90;;;1.42;;
20855;SDS011;63058;49.424;8.420;2022-10-17T03:54:26;2.90;;;1.30;;
20855;SDS011;63058;49.424;8.420;2022-10-17T03:56:52;2.92;;;1.60;;
20855;SDS011;63058;49.424;8.420;2022-10-17T03:59:17;1.88;;;1.48;;
20855;SDS011;63058;49.424;8.420;2022-10-17T04:01:43;1.77;;;1.25;;
20855;SDS011;63058;49.424;8.420;2022-10-17T04:04:09;2.22;;;1.52;;
20855;SDS011;63058;49.424;8.420;2022-10-17T04:06:35;6.68;;;1.42;;
20855;SDS011;63058;49.424;8.420;2022-10-17T04:09:02;1.25;;;1.15;;
20855;SDS011;63058;49.424;8.420;2022-10-17T04:11:28;2.85;;;1.60;;
20855;SDS011;63058;49.424;8.420;2022-10-17T04:13:55;3.75;;;1.40;;
20855;SDS011;63058;49.424;8.420;2022-10-17T04:16:21;3.33;;;1.48;;
20855;SDS011;63058;49.424;8.420;2022-10-17T04:18:51;1.38;;;1.27;;
20855;SDS011;63058;49.424;8.420;2022-10-17T04:21:21;1.70;;;1.52;;
20855;SDS011;63058;49.424;8.420;2022-10-17T04:23:51;2.05;;;1.50;;
20855;SDS011;63058;49.424;8.420;2022-10-17T04:26:18;1.38;;;1.20;;
20855;SDS011;63058;49.424;8.420;2022-10-17T04:28:44;2.83;;;1.38;;
20855;SDS011;63058;49.424;8.420;2022-10-17T04:31:10;3.47;;;1.77;;
20855;SDS011;63058;49.424;8.420;2022-10-17T04:33:37;2.65;;;1.80;;
20855;SDS011;63058;49.424;8.420;2022-10-17T04:36:05;2.10;;;1.40;;
20855;SDS011;63058;49.424;8.420;2022-10-17T04:38:35;1.67;;;1.30;;
20855;SDS011;63058;49.424;8.420;2022-10-17T04:41:02;1.40;;;1.10;;
20855;SDS011;63058;49.424;8.420;2022-10-17T04:43:30;3.53;;;1.73;;
20855;SDS011;63058;49.424;8.420;2022-10-17T04:45:57;1.73;;;1.33;;
20855;SDS011;63058;49.424;8.420;2022-10-17T04:48:23;3.92;;;1.70;;
20855;SDS011;63058;49.424;8.420;2022-10-17T04:50:59;2.78;;;1.90;;
20855;SDS011;63058;49.424;8.420;2022-10-17T04:53:30;2.58;;;1.55;;
20855;SDS011;63058;49.424;8.420;2022-10-17T04:55:56;1.65;;;1.42;;
20855;SDS011;63058;49.424;8.420;2022-10-17T04:58:22;3.33;;;1.50;;
20855;SDS011;63058;49.424;8.420;2022-10-17T05:00:48;2.22;;;1.55;;
20855;SDS011;63058;49.424;8.420;2022-10-17T05:03:14;5.28;;;1.77;;
20855;SDS011;63058;49.424;8.420;2022-10-17T05:05:41;9.13;;;1.95;;
20855;SDS011;63058;49.424;8.420;2022-10-17T05:08:09;4.75;;;1.50;;
20855;SDS011;63058;49.424;8.420;2022-10-17T05:10:39;2.30;;;1.67;;
20855;SDS011;63058;49.424;8.420;2022-10-17T05:13:09;2.70;;;1.67;;
20855;SDS011;63058;49.424;8.420;2022-10-17T05:15:37;4.63;;;1.55;;
20855;SDS011;63058;49.424;8.420;2022-10-17T05:18:03;2.42;;;1.73;;
20855;SDS011;63058;49.424;8.420;2022-10-17T05:20:29;3.10;;;1.70;;
20855;SDS011;63058;49.424;8.420;2022-10-17T05:22:59;1.90;;;1.60;;
20855;SDS011;63058;49.424;8.420;2022-10-17T05:25:26;2.95;;;2.08;;
20855;SDS011;63058;49.424;8.420;2022-10-17T05:27:53;4.20;;;1.95;;
20855;SDS011;63058;49.424;8.420;2022-10-17T05:30:18;5.20;;;1.88;;
20855;SDS011;63058;49.424;8.420;2022-10-17T05:32:44;1.63;;;1.42;;
20855;SDS011;63058;49.424;8.420;2022-10-17T05:35:09;2.83;;;1.80;;
20855;SDS011;63058;49.424;8.420;2022-10-17T05:37:35;4.53;;;2.03;;
20855;SDS011;63058;49.424;8.420;2022-10-17T05:40:01;4.90;;;1.83;;
20855;SDS011;63058;49.424;8.420;2022-10-17T05:42:26;4.30;;;2.15;;
20855;SDS011;63058;49.424;8.420;2022-10-17T05:44:52;2.85;;;1.90;;
20855;SDS011;63058;49.424;8.420;2022-10-17T05:47:18;2.60;;;1.80;;
20855;SDS011;63058;49.424;8.420;2022-10-17T05:49:43;3.58;;;1.80;;
20855;SDS011;63058;49.424;8.420;2022-10-17T05:52:09;2.72;;;1.55;;
20855;SDS011;63058;49.424;8.420;2022-10-17T05:54:34;2.22;;;1.95;;
20855;SDS011;63058;49.424;8.420;2022-10-17T05:57:00;2.30;;;1.45;;
20855;SDS011;63058;49.424;8.420;2022-10-17T05:59:25;3.30;;;1.90;;
20855;SDS011;63058;49.424;8.420;2022-10-17T06:01:51;3.35;;;2.03;;
20855;SDS011;63058;49.424;8.420;2022-10-17T06:04:18;4.07;;;1.80;;
20855;SDS011;63058;49.424;8.420;2022-10-17T06:06:43;5.32;;;1.88;;
20855;SDS011;63058;49.424;8.420;2022-10-17T06:09:09;4.30;;;2.05;;
20855;SDS011;63058;49.424;8.420;2022-10-17T06:11:35;2.80;;;1.80;;
20855;SDS011;63058;49.424;8.420;2022-10-17T06:14:01;2.75;;;1.85;;
20855;SDS011;63058;49.424;8.420;2022-10-17T06:16:27;2.38;;;1.90;;
20855;SDS011;63058;49.424;8.420;2022-10-17T06:18:52;5.68;;;1.92;;
20855;SDS011;63058;49.424;8.420;2022-10-17T06:21:20;2.65;;;2.00;;
20855;SDS011;63058;49.424;8.420;2022-10-17T06:23:47;3.97;;;1.90;;
20855;SDS011;63058;49.424;8.420;2022-10-17T06:26:14;2.08;;;1.83;;
20855;SDS011;63058;49.424;8.420;2022-10-17T06:28:40;4.10;;;2.00;;
20855;SDS011;63058;49.424;8.420;2022-10-17T06:31:07;2.88;;;1.88;;
20855;SDS011;63058;49.424;8.420;2022-10-17T06:33:34;3.03;;;2.00;;
20855;SDS011;63058;49.424;8.420;2022-10-17T06:36:00;4.18;;;1.77;;
20855;SDS011;63058;49.424;8.420;2022-10-17T06:38:27;2.53;;;1.73;;
20855;SDS011;63058;49.424;8.420;2022-10-17T06:40:52;2.42;;;1.70;;
20855;SDS011;63058;49.424;8.420;2022-10-17T06:43:19;3.38;;;1.83;;
20855;SDS011;63058;49.424;8.420;2022-10-17T06:45:45;3.30;;;2.10;;
20855;SDS011;63058;49.424;8.420;2022-10-17T06:48:12;5.68;;;2.47;;
20855;SDS011;63058;49.424;8.420;2022-10-17T06:50:39;4.65;;;1.98;;
20855;SDS011;63058;49.424;8.420;2022-10-17T06:53:05;6.10;;;2.35;;
20855;SDS011;63058;49.424;8.420;2022-10-17T06:55:31;3.15;;;2.03;;
20855;SDS011;63058;49.424;8.420;2022-10-17T06:57:56;2.97;;;2.10;;
20855;SDS011;63058;49.424;8.420;2022-10-17T07:00:23;3.15;;;2.10;;
20855;SDS011;63058;49.424;8.420;2022-10-17T07:02:50;6.60;;;2.15;;
20855;SDS011;63058;49.424;8.420;2022-10-17T07:05:16;5.65;;;2.20;;
20855;SDS011;63058;49.424;8.420;2022-10-17T07:07:43;4.75;;;2.15;;
20855;SDS011;63058;49.424;8.420;2022-10-17T07:10:09;2.90;;;1.98;;
20855;SDS011;63058;49.424;8.420;2022-10-17T07:12:35;4.40;;;2.30;;
20855;SDS011;63058;49.424;8.420;2022-10-17T07:15:03;3.33;;;2.00;;
20855;SDS011;63058;49.424;8.420;2022-10-17T07:17:29;2.40;;;1.98;;
20855;SDS011;63058;49.424;8.420;2022-10-17T07:19:55;3.20;;;2.13;;
20855;SDS011;63058;49.424;8.420;2022-10-17T07:22:20;4.70;;;2.50;;
20855;SDS011;63058;49.424;8.420;2022-10-17T07:24:46;2.63;;;2.00;;
20855;SDS011;63058;49.424;8.420;2022-10-17T07:27:12;4.55;;;2.40;;
20855;SDS011;63058;49.424;8.420;2022-10-17T07:29:38;3.75;;;2.22;;
20855;SDS011;63058;49.424;8.420;2022-10-17T07:32:04;5.25;;;2.03;;
20855;SDS011;63058;49.424;8.420;2022-10-17T07:34:32;2.55;;;2.00;;
20855;SDS011;63058;49.424;8.420;2022-10-17T07:36:59;3.72;;;2.15;;
20855;SDS011;63058;49.424;8.420;2022-10-17T07:39:25;4.82;;;2.33;;
20855;SDS011;63058;49.424;8.420;2022-10-17T07:41:50;3.35;;;2.17;;
20855;SDS011;63058;49.424;8.420;2022-10-17T07:44:16;6.57;;;2.67;;
20855;SDS011;63058;49.424;8.420;2022-10-17T07:46:41;4.60;;;2.38;;
20855;SDS011;63058;49.424;8.420;2022-10-17T07:49:07;4.57;;;2.15;;
20855;SDS011;63058;49.424;8.420;2022-10-17T07:51:33;3.05;;;2.35;;
20855;SDS011;63058;49.424;8.420;2022-10-17T07:53:58;5.75;;;2.50;;
20855;SDS011;63058;49.424;8.420;2022-10-17T07:56:24;5.78;;;2.20;;
20855;SDS011;63058;49.424;8.420;2022-10-17T07:58:51;2.92;;;1.98;;
20855;SDS011;63058;49.424;8.420;2022-10-17T08:01:17;3.13;;;2.00;;
20855;SDS011;63058;49.424;8.420;2022-10-17T08:03:43;4.72;;;2.00;;
20855;SDS011;63058;49.424;8.420;2022-10-17T08:06:09;3.38;;;2.05;;
20855;SDS011;63058;49.424;8.420;2022-10-17T08:08:36;3.55;;;2.20;;
20855;SDS011;63058;49.424;8.420;2022-10-17T08:11:05;2.92;;;1.98;;
20855;SDS011;63058;49.424;8.420;2022-10-17T08:13:32;2.38;;;1.73;;
20855;SDS011;63058;49.424;8.420;2022-10-17T08:15:59;5.90;;;1.95;;
20855;SDS011;63058;49.424;8.420;2022-10-17T08:18:26;3.97;;;1.80;;
20855;SDS011;63058;49.424;8.420;2022-10-17T08:20:53;2.40;;;2.00;;
20855;SDS011;63058;49.424;8.420;2022-10-17T08:23:19;3.88;;;2.10;;
20855;SDS011;63058;49.424;8.420;2022-10-17T08:25:49;5.70;;;2.10;;
20855;SDS011;63058;49.424;8.420;2022-10-17T08:28:17;2.40;;;1.98;;
20855;SDS011;63058;49.424;8.420;2022-10-17T08:30:43;2.53;;;2.05;;
20855;SDS011;63058;49.424;8.420;2022-10-17T08:33:08;2.47;;;2.00;;
20855;SDS011;63058;49.424;8.420;2022-10-17T08:35:35;2.63;;;1.98;;
20855;SDS011;63058;49.424;8.420;2022-10-17T08:38:01;2.00;;;1.80;;
20855;SDS011;63058;49.424;8.420;2022-10-17T08:40:28;2.90;;;1.98;;
20855;SDS011;63058;49.424;8.420;2022-10-17T08:43:18;5.00;;;2.28;;
20855;SDS011;63058;49.424;8.420;2022-10-17T08:46:17;3.47;;;2.15;;
20855;SDS011;63058;49.424;8.420;2022-10-17T08:48:46;3.40;;;1.95;;
20855;SDS011;63058;49.424;8.420;2022-10-17T08:51:15;6.35;;;2.17;;
20855;SDS011;63058;49.424;8.420;2022-10-17T08:54:15;4.72;;;2.50;;
20855;SDS011;63058;49.424;8.420;2022-10-17T08:56:45;3.88;;;2.22;;
20855;SDS011;63058;49.424;8.420;2022-10-17T08:59:19;2.47;;;2.22;;
20855;SDS011;63058;49.424;8.420;2022-10-17T09:02:02;3.50;;;2.17;;
20855;SDS011;63058;49.424;8.420;2022-10-17T09:07:20;5.75;;;2.28;;
20855;SDS011;63058;49.424;8.420;2022-10-17T09:10:42;6.22;;;2.50;;
20855;SDS011;63058;49.424;8.420;2022-10-17T09:18:41;6.00;;;2.45;;
20855;SDS011;63058;49.424;8.420;2022-10-17T09:24:17;9.30;;;2.45;;
20855;SDS011;63058;49.424;8.420;2022-10-17T09:26:46;3.25;;;2.28;;
20855;SDS011;63058;49.424;8.420;2022-10-17T09:29:17;3.17;;;2.53;;
20855;SDS011;63058;49.424;8.420;2022-10-17T09:32:02;4.72;;;2.15;;
20855;SDS011;63058;49.424;8.420;2022-10-17T09:34:36;2.80;;;2.30;;
20855;SDS011;63058;49.424;8.420;2022-10-17T09:37:01;2.97;;;2.17;;
20855;SDS011;63058;49.424;8.420;2022-10-17T09:39:33;7.07;;;2.40;;
20855;SDS011;63058;49.424;8.420;2022-10-17T09:41:59;5.05;;;2.53;;
20855;SDS011;63058;49.424;8.420;2022-10-17T09:44:31;7.15;;;2.22;;
20855;SDS011;63058;49.424;8.420;2022-10-17T09:47:14;2.40;;;2.20;;
20855;SDS011;63058;49.424;8.420;2022-10-17T09:49:58;3.00;;;2.30;;
20855;SDS011;63058;49.424;8.420;2022-10-17T09:52:30;2.60;;;2.10;;
20855;SDS011;63058;49.424;8.420;2022-10-17T09:55:03;3.22;;;2.20;;
20855;SDS011;63058;49.424;8.420;2022-10-17T09:57:51;2.40;;;1.90;;
20855;SDS011;63058;49.424;8.420;2022-10-17T10:00:23;1.98;;;1.70;;
20855;SDS011;63058;49.424;8.420;2022-10-17T10:03:06;2.03;;;1.83;;
20855;SDS011;63058;49.424;8.420;2022-10-17T10:05:40;4.20;;;1.83;;
20855;SDS011;63058;49.424;8.420;2022-10-17T10:08:15;4.00;;;2.00;;
20855;SDS011;63058;49.424;8.420;2022-10-17T10:10:43;1.98;;;1.60;;
20855;SDS011;63058;49.424;8.420;2022-10-17T10:15:38;2.67;;;1.60;;
20855;SDS011;63058;49.424;8.420;2022-10-17T10:18:38;2.38;;;1.42;;
20855;SDS011;63058;49.424;8.420;2022-10-17T10:21:22;5.13;;;1.50;;
20855;SDS011;63058;49.424;8.420;2022-10-17T10:26:40;2.90;;;1.67;;
20855;SDS011;63058;49.424;8.420;2022-10-17T10:31:46;2.45;;;1.63;;
20855;SDS011;63058;49.424;8.420;2022-10-17T10:34:23;1.52;;;1.25;;
20855;SDS011;63058;49.424;8.420;2022-10-17T10:36:56;2.60;;;1.77;;
20855;SDS011;63058;49.424;8.420;2022-10-17T10:39:36;2.20;;;1.40;;
20855;SDS011;63058;49.424;8.420;2022-10-17T10:42:23;2.65;;;1.33;;
20855;SDS011;63058;49.424;8.420;2022-10-17T10:44:54;3.20;;;1.45;;
20855;SDS011;63058;49.424;8.420;2022-10-17T10:47:27;4.05;;;1.60;;
20855;SDS011;63058;49.424;8.420;2022-10-17T10:50:08;3.38;;;1.50;;
20855;SDS011;63058;49.424;8.420;2022-10-17T10:55:53;1.95;;;1.33;;
20855;SDS011;63058;49.424;8.420;2022-10-17T10:58:36;3.47;;;1.33;;
20855;SDS011;63058;49.424;8.420;2022-10-17T11:07:26;1.15;;;1.05;;
20855;SDS011;63058;49.424;8.420;2022-10-17T11:10:13;3.15;;;1.30;;
20855;SDS011;63058;49.424;8.420;2022-10-17T11:13:05;1.85;;;1.30;;
20855;SDS011;63058;49.424;8.420;2022-10-17T11:15:38;2.25;;;1.40;;
20855;SDS011;63058;49.424;8.420;2022-10-17T11:18:10;4.95;;;1.23;;
20855;SDS011;63058;49.424;8.420;2022-10-17T11:20:52;4.25;;;1.27;;
20855;SDS011;63058;49.424;8.420;2022-10-17T11:23:37;2.15;;;1.33;;
20855;SDS011;63058;49.424;8.420;2022-10-17T11:26:12;1.50;;;1.35;;
20855;SDS011;63058;49.424;8.420;2022-10-17T11:28:51;2.40;;;1.48;;
20855;SDS011;63058;49.424;8.420;2022-10-17T11:31:22;1.20;;;1.10;;
20855;SDS011;63058;49.424;8.420;2022-10-17T11:33:58;1.70;;;1.13;;
20855;SDS011;63058;49.424;8.420;2022-10-17T11:36:33;1.35;;;1.00;;
20855;SDS011;63058;49.424;8.420;2022-10-17T11:39:01;3.25;;;1.30;;
20855;SDS011;63058;49.424;8.420;2022-10-17T11:44:35;2.20;;;1.23;;
20855;SDS011;63058;49.424;8.420;2022-10-17T11:52:36;2.70;;;1.15;;
20855;SDS011;63058;49.424;8.420;2022-10-17T11:57:47;1.80;;;1.00;;
20855;SDS011;63058;49.424;8.420;2022-10-17T12:00:46;1.83;;;1.15;;
20855;SDS011;63058;49.424;8.420;2022-10-17T12:12:01;1.30;;;1.00;;
20855;SDS011;63058;49.424;8.420;2022-10-17T12:17:04;5.05;;;1.20;;
20855;SDS011;63058;49.424;8.420;2022-10-17T12:19:46;2.65;;;1.27;;
20855;SDS011;63058;49.424;8.420;2022-10-17T12:22:21;3.05;;;1.13;;
20855;SDS011;63058;49.424;8.420;2022-10-17T12:24:59;4.00;;;1.10;;
20855;SDS011;63058;49.424;8.420;2022-10-17T12:27:39;1.73;;;1.20;;
20855;SDS011;63058;49.424;8.420;2022-10-17T12:35:46;1.55;;;1.10;;
20855;SDS011;63058;49.424;8.420;2022-10-17T12:46:00;2.83;;;1.25;;
20855;SDS011;63058;49.424;8.420;2022-10-17T12:51:06;2.17;;;1.20;;
20855;SDS011;63058;49.424;8.420;2022-10-17T12:53:42;2.05;;;1.00;;
20855;SDS011;63058;49.424;8.420;2022-10-17T12:56:09;1.35;;;1.10;;
20855;SDS011;63058;49.424;8.420;2022-10-17T12:58:35;1.10;;;1.00;;
20855;SDS011;63058;49.424;8.420;2022-10-17T13:01:01;2.53;;;1.20;;
20855;SDS011;63058;49.424;8.420;2022-10-17T13:03:31;3.35;;;1.00;;
20855;SDS011;63058;49.424;8.420;2022-10-17T13:06:04;2.88;;;1.10;;
20855;SDS011;63058;49.424;8.420;2022-10-17T13:08:32;1.20;;;0.90;;
20855;SDS011;63058;49.424;8.420;2022-10-17T13:11:01;1.65;;;0.90;;
20855;SDS011;63058;49.424;8.420;2022-10-17T13:13:43;3.10;;;1.15;;
20855;SDS011;63058;49.424;8.420;2022-10-17T13:16:26;1.45;;;0.88;;
20855;SDS011;63058;49.424;8.420;2022-10-17T13:18:55;2.15;;;0.90;;
20855;SDS011;63058;49.424;8.420;2022-10-17T13:21:21;5.15;;;1.20;;
20855;SDS011;63058;49.424;8.420;2022-10-17T13:23:48;1.92;;;1.20;;
20855;SDS011;63058;49.424;8.420;2022-10-17T13:26:19;2.90;;;1.05;;
20855;SDS011;63058;49.424;8.420;2022-10-17T13:29:03;2.55;;;1.10;;
20855;SDS011;63058;49.424;8.420;2022-10-17T13:31:35;2.60;;;1.20;;
20855;SDS011;63058;49.424;8.420;2022-10-17T13:34:04;5.78;;;1.10;;
20855;SDS011;63058;49.424;8.420;2022-10-17T13:36:32;2.47;;;1.25;;
20855;SDS011;63058;49.424;8.420;2022-10-17T13:38:59;2.15;;;1.13;;
20855;SDS011;63058;49.424;8.420;2022-10-17T13:41:32;4.05;;;1.30;;
20855;SDS011;63058;49.424;8.420;2022-10-17T13:44:02;3.60;;;1.10;;
20855;SDS011;63058;49.424;8.420;2022-10-17T13:46:50;3.05;;;1.30;;
20855;SDS011;63058;49.424;8.420;2022-10-17T13:50:02;5.80;;;1.20;;
20855;SDS011;63058;49.424;8.420;2022-10-17T13:52:12;1.42;;;1.10;;
20855;SDS011;63058;49.424;8.420;2022-10-17T13:54:42;2.10;;;1.05;;
20855;SDS011;63058;49.424;8.420;2022-10-17T13:57:25;4.80;;;1.20;;
20855;SDS011;63058;49.424;8.420;2022-10-17T13:59:54;2.17;;;1.10;;
20855;SDS011;63058;49.424;8.420;2022-10-17T14:02:31;4.28;;;1.30;;
20855;SDS011;63058;49.424;8.420;2022-10-17T14:10:52;3.08;;;1.08;;
20855;SDS011;63058;49.424;8.420;2022-10-17T14:13:00;3.20;;;1.10;;
20855;SDS011;63058;49.424;8.420;2022-10-17T14:15:29;2.05;;;1.10;;
20855;SDS011;63058;49.424;8.420;2022-10-17T14:17:58;1.55;;;1.15;;
20855;SDS011;63058;49.424;8.420;2022-10-17T14:20:27;1.75;;;1.25;;
20855;SDS011;63058;49.424;8.420;2022-10-17T14:22:54;2.67;;;1.35;;
20855;SDS011;63058;49.424;8.420;2022-10-17T14:25:37;4.72;;;1.30;;
20855;SDS011;63058;49.424;8.420;2022-10-17T14:28:13;2.55;;;1.25;;
20855;SDS011;63058;49.424;8.420;2022-10-17T14:30:47;2.55;;;1.15;;
20855;SDS011;63058;49.424;8.420;2022-10-17T14:33:23;1.42;;;1.20;;
20855;SDS011;63058;49.424;8.420;2022-10-17T14:35:54;2.13;;;1.10;;
20855;SDS011;63058;49.424;8.420;2022-10-17T14:38:23;1.50;;;1.20;;
20855;SDS011;63058;49.424;8.420;2022-10-17T14:40:50;2.95;;;1.33;;
20855;SDS011;63058;49.424;8.420;2022-10-17T14:43:24;3.25;;;1.02;;
20855;SDS011;63058;49.424;8.420;2022-10-17T14:45:52;1.85;;;1.00;;
20855;SDS011;63058;49.424;8.420;2022-10-17T14:48:22;5.25;;;1.40;;
20855;SDS011;63058;49.424;8.420;2022-10-17T14:56:48;3.65;;;1.10;;
20855;SDS011;63058;49.424;8.420;2022-10-17T14:59:16;2.92;;;1.27;;
20855;SDS011;63058;49.424;8.420;2022-10-17T15:01:46;1.90;;;1.20;;
20855;SDS011;63058;49.424;8.420;2022-10-17T15:04:15;3.00;;;1.27;;
20855;SDS011;63058;49.424;8.420;2022-10-17T15:06:41;3.75;;;1.20;;
20855;SDS011;63058;49.424;8.420;2022-10-17T15:09:07;1.77;;;1.30;;
20855;SDS011;63058;49.424;8.420;2022-10-17T15:11:34;2.65;;;1.23;;
20855;SDS011;63058;49.424;8.420;2022-10-17T15:14:00;6.15;;;1.40;;
20855;SDS011;63058;49.424;8.420;2022-10-17T15:16:26;3.67;;;1.80;;
20855;SDS011;63058;49.424;8.420;2022-10-17T15:18:55;3.28;;;1.17;;
20855;SDS011;63058;49.424;8.420;2022-10-17T15:21:22;2.10;;;1.20;;
20855;SDS011;63058;49.424;8.420;2022-10-17T15:23:49;2.90;;;1.60;;
20855;SDS011;63058;49.424;8.420;2022-10-17T15:26:22;2.88;;;1.35;;
20855;SDS011;63058;49.424;8.420;2022-10-17T15:28:50;3.65;;;1.25;;
20855;SDS011;63058;49.424;8.420;2022-10-17T15:31:17;3.03;;;1.73;;
20855;SDS011;63058;49.424;8.420;2022-10-17T15:33:44;2.47;;;1.50;;
20855;SDS011;63058;49.424;8.420;2022-10-17T15:36:18;1.73;;;1.38;;
20855;SDS011;63058;49.424;8.420;2022-10-17T15:38:51;2.53;;;1.52;;
20855;SDS011;63058;49.424;8.420;2022-10-17T15:41:20;5.57;;;1.42;;
20855;SDS011;63058;49.424;8.420;2022-10-17T15:43:47;2.90;;;1.50;;
20855;SDS011;63058;49.424;8.420;2022-10-17T15:46:23;5.28;;;1.55;;
20855;SDS011;63058;49.424;8.420;2022-10-17T15:48:52;2.30;;;1.15;;
20855;SDS011;63058;49.424;8.420;2022-10-17T15:51:18;3.42;;;1.27;;
20855;SDS011;63058;49.424;8.420;2022-10-17T15:53:44;4.13;;;1.23;;
20855;SDS011;63058;49.424;8.420;2022-10-17T15:56:18;5.03;;;1.83;;
20855;SDS011;63058;49.424;8.420;2022-10-17T15:58:44;4.68;;;1.50;;
20855;SDS011;63058;49.424;8.420;2022-10-17T16:01:19;4.25;;;1.50;;
20855;SDS011;63058;49.424;8.420;2022-10-17T16:03:47;2.75;;;1.50;;
20855;SDS011;63058;49.424;8.420;2022-10-17T16:06:14;2.22;;;1.80;;
20855;SDS011;63058;49.424;8.420;2022-10-17T16:08:41;9.27;;;1.95;;
20855;SDS011;63058;49.424;8.420;2022-10-17T16:11:09;4.60;;;1.60;;
20855;SDS011;63058;49.424;8.420;2022-10-17T16:13:58;2.50;;;1.40;;
20855;SDS011;63058;49.424;8.420;2022-10-17T16:16:27;3.75;;;1.40;;
20855;SDS011;63058;49.424;8.420;2022-10-17T16:18:52;6.68;;;1.80;;
20855;SDS011;63058;49.424;8.420;2022-10-17T16:21:20;3.60;;;1.80;;
20855;SDS011;63058;49.424;8.420;2022-10-17T16:23:49;1.70;;;1.40;;
20855;SDS011;63058;49.424;8.420;2022-10-17T16:26:15;4.53;;;1.90;;
20855;SDS011;63058;49.424;8.420;2022-10-17T16:28:41;4.30;;;1.80;;
20855;SDS011;63058;49.424;8.420;2022-10-17T16:31:14;3.42;;;1.83;;
20855;SDS011;63058;49.424;8.420;2022-10-17T16:33:50;2.22;;;1.70;;
20855;SDS011;63058;49.424;8.420;2022-10-17T16:36:17;3.38;;;1.80;;
20855;SDS011;63058;49.424;8.420;2022-10-17T16:38:44;4.85;;;2.00;;
20855;SDS011;63058;49.424;8.420;2022-10-17T16:41:30;2.65;;;1.95;;
20855;SDS011;63058;49.424;8.420;2022-10-17T16:43:59;3.53;;;1.92;;
20855;SDS011;63058;49.424;8.420;2022-10-17T16:46:27;5.93;;;2.28;;
20855;SDS011;63058;49.424;8.420;2022-10-17T16:48:55;3.25;;;2.28;;